Time;durP1;ratioP1;P1;durP2;ratioP2;P2;SDS_P1;SDS_P2;PMS_P1;PMS_P2;Temp;Humidity;BMP_temperature;BMP_pressure;BME280_temperature;BME280_humidity;BME280_pressure;Samples;Min_cycle;Max_cycle;Signal;HPM_P1;HPM_P2
2023/09/16 00:01:25;;;;;;;16.42;14.38;;;;;;;16.91;100.00;96497.03;5111128;28;20632;-60
2023/09/16 00:03:51;;;;;;;20.38;14.40;;;;;;;16.90;100.00;96501.56;5111868;28;20197;-57
2023/09/16 00:06:18;;;;;;;15.60;14.05;;;;;;;16.92;100.00;96496.88;5111841;28;20209;-57
2023/09/16 00:08:45;;;;;;;15.70;14.30;;;;;;;16.98;100.00;96502.47;5112024;28;20224;-56
2023/09/16 00:11:12;;;;;;;16.05;14.45;;;;;;;16.98;100.00;96507.81;5111655;28;20197;-56
2023/09/16 00:13:41;;;;;;;16.02;14.45;;;;;;;16.99;100.00;96512.16;5111927;28;20209;-57
2023/09/16 00:16:08;;;;;;;15.95;14.45;;;;;;;16.99;100.00;96514.81;5112508;28;20236;-58
2023/09/16 00:18:35;;;;;;;14.88;13.57;;;;;;;16.99;100.00;96510.31;5111768;28;20209;-58
2023/09/16 00:21:01;;;;;;;15.57;14.02;;;;;;;16.99;100.00;96509.47;5111729;28;20208;-57
2023/09/16 00:23:28;;;;;;;16.27;14.13;;;;;;;16.99;100.00;96509.47;5111431;28;20201;-58
2023/09/16 00:25:56;;;;;;;16.23;14.63;;;;;;;17.00;100.00;96505.81;5111367;28;20559;-57
2023/09/16 00:28:25;;;;;;;16.00;14.30;;;;;;;16.97;100.00;96514.19;5110895;28;20264;-57
2023/09/16 00:30:51;;;;;;;16.63;14.77;;;;;;;16.97;100.00;96511.53;5111799;28;20212;-57
2023/09/16 00:33:18;;;;;;;15.30;13.70;;;;;;;16.95;100.00;96513.53;5111851;28;20212;-57
2023/09/16 00:35:45;;;;;;;15.32;13.73;;;;;;;16.93;100.00;96506.53;5110895;28;20243;-58
2023/09/16 00:38:15;;;;;;;14.32;12.88;;;;;;;16.90;100.00;96517.59;5111307;28;20551;-57
2023/09/16 00:40:42;;;;;;;14.55;13.15;;;;;;;16.90;100.00;96514.91;5110837;28;20927;-58
2023/09/16 00:43:09;;;;;;;15.18;13.63;;;;;;;16.89;100.00;96515.94;5111293;28;20219;-59
2023/09/16 00:45:36;;;;;;;15.82;13.75;;;;;;;16.90;100.00;96522.91;5114795;28;20209;-57
2023/09/16 00:48:04;;;;;;;15.40;13.82;;;;;;;16.87;100.00;96525.97;5115110;28;20532;-57
2023/09/16 00:50:31;;;;;;;16.02;14.55;;;;;;;16.85;100.00;96525.34;5115459;28;20219;-58
2023/09/16 00:52:59;;;;;;;15.80;14.18;;;;;;;16.82;100.00;96525.72;5115460;28;20196;-57
2023/09/16 00:55:26;;;;;;;15.23;13.63;;;;;;;16.83;100.00;96527.34;5115108;28;20224;-58
2023/09/16 00:57:54;;;;;;;15.38;13.35;;;;;;;16.79;100.00;96531.41;5115032;28;20201;-59
2023/09/16 01:00:26;;;;;;;15.18;13.50;;;;;;;16.77;100.00;96528.09;5114697;28;20212;-58
2023/09/16 01:02:53;;;;;;;15.88;14.05;;;;;;;16.77;100.00;96530.75;5123267;28;20215;-58
2023/09/16 01:05:20;;;;;;;14.93;13.35;;;;;;;16.77;100.00;96528.09;5126470;28;20197;-55
2023/09/16 01:07:46;;;;;;;15.15;13.68;;;;;;;16.78;100.00;96535.09;5128276;28;20296;-56
2023/09/16 01:10:14;;;;;;;16.67;14.98;;;;;;;16.74;100.00;96525.78;5122640;28;20228;-57
2023/09/16 01:12:41;;;;;;;15.25;13.80;;;;;;;16.74;100.00;96528.47;5116424;28;20213;-58
2023/09/16 01:15:09;;;;;;;17.65;14.68;;;;;;;16.75;100.00;96523.97;5115838;28;20259;-58
2023/09/16 01:17:42;;;;;;;16.63;14.95;;;;;;;16.82;100.00;96525.72;5115220;28;20576;-57
2023/09/16 01:20:13;;;;;;;15.85;14.35;;;;;;;16.78;100.00;96521.75;5115546;28;20224;-58
2023/09/16 01:22:44;;;;;;;16.42;14.82;;;;;;;16.74;100.00;96523.13;5115216;28;20201;-57
2023/09/16 01:25:13;;;;;;;15.65;14.00;;;;;;;16.81;100.00;96524.03;5114591;28;20201;-57
2023/09/16 01:27:39;;;;;;;15.75;14.18;;;;;;;16.76;100.00;96522.91;5114962;28;20205;-57
2023/09/16 01:30:07;;;;;;;16.88;15.07;;;;;;;16.76;100.00;96529.09;5114698;28;20573;-57
2023/09/16 01:32:39;;;;;;;16.13;14.50;;;;;;;16.79;100.00;96534.06;5115125;28;20212;-57
2023/09/16 01:35:08;;;;;;;17.40;15.73;;;;;;;16.86;100.00;96526.16;5114591;28;20201;-58
2023/09/16 01:37:34;;;;;;;15.90;14.23;;;;;;;16.87;100.00;96528.63;5115120;28;20205;-58
2023/09/16 01:40:10;;;;;;;15.55;14.00;;;;;;;16.87;100.00;96525.97;5114462;28;20212;-58
2023/09/16 01:42:38;;;;;;;15.90;14.43;;;;;;;16.85;100.00;96525.34;5115031;28;20281;-57
2023/09/16 01:45:07;;;;;;;15.00;13.45;;;;;;;16.88;100.00;96522.28;5114632;28;20208;-57
2023/09/16 01:47:33;;;;;;;16.63;14.82;;;;;;;16.90;100.00;96522.91;5113892;28;21442;-58
2023/09/16 01:50:00;;;;;;;15.85;14.35;;;;;;;16.97;100.00;96524.88;5114885;28;20205;-58
2023/09/16 01:52:26;;;;;;;16.08;13.52;;;;;;;16.92;100.00;96520.91;5114231;28;20216;-57
2023/09/16 01:54:53;;;;;;;16.55;13.63;;;;;;;16.95;100.00;96518.88;5114279;28;20201;-57
2023/09/16 01:57:19;;;;;;;16.90;15.13;;;;;;;16.97;100.00;96517.66;5112474;28;20221;-59
2023/09/16 01:59:47;;;;;;;17.60;13.75;;;;;;;16.97;100.00;96524.88;5113554;28;20205;-58
2023/09/16 02:02:13;;;;;;;16.65;14.93;;;;;;;16.97;100.00;96522.22;5113855;28;20204;-58
2023/09/16 02:04:44;;;;;;;14.80;13.38;;;;;;;16.95;100.00;96516.19;5113579;28;20536;-58
2023/09/16 02:07:11;;;;;;;15.75;14.18;;;;;;;16.92;100.00;96510.22;5113805;28;20198;-58
2023/09/16 02:09:37;;;;;;;16.90;14.55;;;;;;;16.95;100.00;96514.38;5113675;28;20212;-57
2023/09/16 02:12:04;;;;;;;16.30;14.73;;;;;;;16.97;100.00;96520.34;5112744;28;20239;-56
2023/09/16 02:14:31;;;;;;;16.95;15.23;;;;;;;16.98;100.00;96523.84;5114240;28;20527;-57
2023/09/16 02:16:59;;;;;;;16.73;14.82;;;;;;;16.99;100.00;96525.50;5113649;28;20668;-57
2023/09/16 02:19:25;;;;;;;22.45;16.92;;;;;;;17.03;100.00;96519.63;5113199;28;20212;-57
2023/09/16 02:21:52;;;;;;;16.27;14.77;;;;;;;16.97;100.00;96516.88;5113484;28;20613;-58
2023/09/16 02:24:18;;;;;;;16.60;15.02;;;;;;;16.96;100.00;96515.19;5113183;28;20578;-57
2023/09/16 02:26:45;;;;;;;17.55;15.75;;;;;;;16.92;100.00;96515.56;5113593;28;20533;-57
2023/09/16 02:29:12;;;;;;;17.40;15.70;;;;;;;16.92;100.00;96510.22;5113172;28;20318;-58
2023/09/16 02:31:38;;;;;;;17.05;15.48;;;;;;;16.93;100.00;96513.72;5113737;28;20204;-58
2023/09/16 02:34:06;;;;;;;16.67;15.07;;;;;;;16.91;100.00;96505.06;5113721;28;20201;-57
2023/09/16 02:36:32;;;;;;;17.10;15.13;;;;;;;16.90;100.00;96509.56;5113173;28;20213;-58
2023/09/16 02:38:59;;;;;;;18.25;16.23;;;;;;;16.86;100.00;96515.50;5113329;28;20209;-58
2023/09/16 02:41:26;;;;;;;17.50;15.82;;;;;;;16.87;100.00;96511.78;5113765;28;20209;-58
2023/09/16 02:43:53;;;;;;;18.42;16.50;;;;;;;16.85;100.00;96516.50;5113000;28;20213;-57
2023/09/16 02:46:19;;;;;;;18.33;16.42;;;;;;;16.83;100.00;96521.16;5113556;28;20216;-58
2023/09/16 02:48:46;;;;;;;18.05;15.95;;;;;;;16.84;100.00;96510.31;5113526;28;20527;-57
2023/09/16 02:51:13;;;;;;;18.30;16.50;;;;;;;16.84;100.00;96515.66;5113168;28;20623;-57
2023/09/16 02:53:40;;;;;;;19.00;17.00;;;;;;;16.83;100.00;96510.50;5112356;28;20560;-56
2023/09/16 02:56:08;;;;;;;19.10;17.17;;;;;;;16.81;100.00;96509.84;5112791;28;20539;-58
2023/09/16 02:58:34;;;;;;;18.67;16.85;;;;;;;16.79;100.00;96510.03;5112650;28;20633;-57
2023/09/16 03:01:01;;;;;;;19.15;17.20;;;;;;;16.77;100.00;96506.72;5112773;28;20224;-57
2023/09/16 03:03:28;;;;;;;22.17;17.98;;;;;;;16.74;100.00;96507.09;5111500;28;20201;-58
2023/09/16 03:05:54;;;;;;;21.65;17.33;;;;;;;16.75;100.00;96508.78;5113070;28;20193;-58
2023/09/16 03:08:22;;;;;;;19.52;17.58;;;;;;;16.74;100.00;96512.44;5112601;28;20205;-57
2023/09/16 03:10:49;;;;;;;20.27;17.08;;;;;;;16.75;100.00;96511.44;5112353;28;20205;-57
2023/09/16 03:13:15;;;;;;;19.98;17.85;;;;;;;16.75;100.00;96508.78;5112741;28;20295;-58
2023/09/16 03:15:45;;;;;;;22.67;18.42;;;;;;;16.74;100.00;96500.94;5115574;28;20209;-57
2023/09/16 03:18:12;;;;;;;19.15;17.10;;;;;;;16.71;100.00;96504.81;5122281;28;20198;-58
2023/09/16 03:20:38;;;;;;;19.85;17.48;;;;;;;16.72;100.00;96498.44;5119391;28;20205;-58
2023/09/16 03:23:05;;;;;;;20.85;18.23;;;;;;;16.71;100.00;96494.13;5119260;28;20205;-58
2023/09/16 03:25:33;;;;;;;19.52;17.52;;;;;;;16.75;100.00;96492.75;5114990;28;20208;-57
2023/09/16 03:28:00;;;;;;;21.40;19.33;;;;;;;16.71;100.00;96488.78;5113038;28;20208;-57
2023/09/16 03:30:27;;;;;;;22.70;19.63;;;;;;;16.69;100.00;96482.78;5112676;28;20197;-58
2023/09/16 03:32:54;;;;;;;24.00;21.60;;;;;;;16.69;100.00;96488.13;5111736;28;20305;-57
2023/09/16 03:35:21;;;;;;;22.00;19.17;;;;;;;16.70;100.00;96484.44;5112585;28;20197;-58
2023/09/16 03:37:47;;;;;;;20.98;18.83;;;;;;;16.68;100.00;96478.47;5111991;28;20525;-57
2023/09/16 03:40:14;;;;;;;20.02;17.90;;;;;;;16.64;100.00;96490.53;5111483;28;20548;-58
2023/09/16 03:42:42;;;;;;;21.73;18.90;;;;;;;16.64;100.00;96481.69;5111004;28;20636;-58
2023/09/16 03:45:09;;;;;;;22.00;18.02;;;;;;;16.65;100.00;96481.50;5111317;28;20529;-57
2023/09/16 03:47:35;;;;;;;20.27;18.27;;;;;;;16.63;100.00;96478.19;5112452;28;20201;-58
2023/09/16 03:50:02;;;;;;;20.00;17.90;;;;;;;16.62;100.00;96476.53;5112627;28;20399;-58
2023/09/16 03:52:29;;;;;;;20.45;18.17;;;;;;;16.57;100.00;96473.59;5111660;28;20727;-57
2023/09/16 03:54:55;;;;;;;21.42;18.23;;;;;;;16.61;100.00;96472.22;5111742;28;20209;-58
2023/09/16 03:57:22;;;;;;;19.92;17.73;;;;;;;16.57;100.00;96476.25;5111474;28;20232;-58
2023/09/16 03:59:50;;;;;;;18.20;16.27;;;;;;;16.55;100.00;96486.25;5112817;28;20197;-58
2023/09/16 04:02:17;;;;;;;21.70;17.13;;;;;;;16.53;100.00;96474.94;5112392;28;20212;-58
2023/09/16 04:04:43;;;;;;;19.15;16.63;;;;;;;16.51;100.00;96478.81;5111515;28;20783;-58
2023/09/16 04:07:09;;;;;;;18.58;16.70;;;;;;;16.53;100.00;96487.44;5110514;28;20216;-58
2023/09/16 04:09:36;;;;;;;18.50;16.58;;;;;;;16.47;100.00;96481.03;5111309;28;20197;-57
2023/09/16 04:12:03;;;;;;;19.73;17.63;;;;;;;16.47;100.00;96475.69;5110515;28;20205;-57
2023/09/16 04:14:30;;;;;;;18.48;16.67;;;;;;;16.45;100.00;96472.34;5111755;28;20273;-57
2023/09/16 04:16:57;;;;;;;19.83;18.02;;;;;;;16.42;100.00;96472.72;5111836;28;20217;-58
2023/09/16 04:19:24;;;;;;;19.75;16.67;;;;;;;16.40;100.00;96466.75;5110816;28;20197;-57
2023/09/16 04:21:51;;;;;;;19.90;16.55;;;;;;;16.36;100.00;96468.13;5111365;28;20204;-59
2023/09/16 04:24:17;;;;;;;18.38;16.27;;;;;;;16.33;100.00;96460.50;5110148;28;20257;-57
2023/09/16 04:26:44;;;;;;;18.50;16.52;;;;;;;16.34;100.00;96464.78;5111298;28;20192;-57
2023/09/16 04:29:10;;;;;;;17.00;14.77;;;;;;;16.32;100.00;96469.50;5110555;28;20239;-58
2023/09/16 04:31:37;;;;;;;16.33;14.77;;;;;;;16.26;100.00;96464.91;5111564;28;20205;-57
2023/09/16 04:34:05;;;;;;;15.85;14.02;;;;;;;16.22;100.00;96463.59;5111220;28;20225;-58
2023/09/16 04:36:31;;;;;;;15.88;14.27;;;;;;;16.21;100.00;96468.09;5111003;28;20314;-58
2023/09/16 04:38:58;;;;;;;15.32;13.75;;;;;;;16.19;100.00;96458.63;5111057;28;20201;-57
2023/09/16 04:41:25;;;;;;;14.85;13.35;;;;;;;16.18;100.00;96467.63;5110766;28;20205;-58
2023/09/16 04:43:51;;;;;;;15.63;14.18;;;;;;;16.15;100.00;96457.34;5110878;28;20634;-58
2023/09/16 04:46:18;;;;;;;14.90;13.40;;;;;;;16.12;100.00;96465.72;5110896;28;20209;-57
2023/09/16 04:48:44;;;;;;;14.65;13.00;;;;;;;16.07;100.00;96466.25;5111562;28;20211;-57
2023/09/16 04:51:12;;;;;;;13.98;12.52;;;;;;;16.02;100.00;96462.44;5111223;28;20209;-57
2023/09/16 04:53:39;;;;;;;12.43;11.23;;;;;;;16.02;100.00;96459.78;5110568;28;20205;-57
2023/09/16 04:56:06;;;;;;;11.95;10.70;;;;;;;15.97;100.00;96459.50;5110796;28;20637;-57
2023/09/16 04:58:32;;;;;;;10.43;9.23;;;;;;;15.96;100.00;96463.19;5110800;28;20201;-58
2023/09/16 05:00:59;;;;;;;12.80;10.43;;;;;;;15.93;100.00;96457.22;5110770;28;20208;-58
2023/09/16 05:03:26;;;;;;;16.00;12.75;;;;;;;15.94;100.00;96460.72;5111284;28;20529;-57
2023/09/16 05:05:53;;;;;;;13.55;12.38;;;;;;;15.91;100.00;96450.38;5111385;28;20552;-56
2023/09/16 05:08:20;;;;;;;13.82;12.40;;;;;;;15.91;100.00;96445.88;5111244;28;20205;-57
2023/09/16 05:10:53;;;;;;;13.48;12.27;;;;;;;15.91;100.00;96448.53;5110368;28;20213;-57
2023/09/16 05:13:19;;;;;;;12.55;11.23;;;;;;;15.92;100.00;96444.03;5110747;28;20223;-57
2023/09/16 05:15:47;;;;;;;11.45;10.35;;;;;;;15.89;100.00;96445.25;5111275;28;20201;-58
2023/09/16 05:18:13;;;;;;;11.73;9.82;;;;;;;15.87;100.00;96443.78;5111847;28;20533;-58
2023/09/16 05:20:40;;;;;;;9.93;9.02;;;;;;;15.85;100.00;96438.59;5111770;28;20219;-57
2023/09/16 05:23:06;;;;;;;11.20;10.15;;;;;;;15.87;100.00;96436.56;5110371;28;20645;-58
2023/09/16 05:25:34;;;;;;;12.15;10.95;;;;;;;15.91;100.00;96426.38;5111068;28;20201;-58
2023/09/16 05:28:00;;;;;;;11.63;10.60;;;;;;;15.98;100.00;96434.50;5110732;28;20205;-57
2023/09/16 05:30:27;;;;;;;11.70;10.60;;;;;;;16.01;100.00;96436.81;5115503;28;20196;-57
2023/09/16 05:32:53;;;;;;;10.00;9.00;;;;;;;16.06;100.00;96431.72;5119251;28;20532;-58
2023/09/16 05:35:20;;;;;;;8.73;7.93;;;;;;;16.09;100.00;96437.53;5118676;28;20706;-58
2023/09/16 05:37:46;;;;;;;9.00;8.20;;;;;;;16.08;100.00;96430.56;5116364;28;20228;-56
2023/09/16 05:40:12;;;;;;;7.35;6.65;;;;;;;16.11;100.00;96440.88;5114825;28;20205;-58
2023/09/16 05:42:40;;;;;;;8.18;7.38;;;;;;;16.14;100.00;96434.31;5113973;28;20209;-59
2023/09/16 05:45:08;;;;;;;7.45;6.85;;;;;;;16.17;100.00;96431.28;5114676;28;20275;-57
2023/09/16 05:47:35;;;;;;;7.10;6.50;;;;;;;16.19;100.00;96431.94;5114553;28;20327;-57
2023/09/16 05:50:03;;;;;;;7.45;6.85;;;;;;;16.25;100.00;96436.56;5114331;28;20220;-57
2023/09/16 05:52:29;;;;;;;8.02;7.32;;;;;;;16.32;100.00;96432.13;5113972;28;20700;-58
2023/09/16 05:54:58;;;;;;;7.85;7.15;;;;;;;16.39;100.00;96427.72;5113594;28;20198;-57
2023/09/16 05:57:24;;;;;;;8.02;7.18;;;;;;;16.46;100.00;96427.81;5115533;28;20216;-58
2023/09/16 05:59:52;;;;;;;9.80;8.60;;;;;;;16.53;100.00;96434.91;5115174;28;20209;-57
2023/09/16 06:02:19;;;;;;;9.48;8.77;;;;;;;16.62;100.00;96425.78;5115539;28;20232;-58
2023/09/16 06:04:45;;;;;;;10.68;9.68;;;;;;;16.69;100.00;96426.72;5114612;28;20205;-58
2023/09/16 06:07:12;;;;;;;10.35;9.45;;;;;;;16.77;100.00;96423.94;5114141;28;20193;-58
2023/09/16 06:09:38;;;;;;;11.65;10.45;;;;;;;16.87;100.00;96428.97;5114949;28;20202;-58
2023/09/16 06:12:05;;;;;;;12.60;11.25;;;;;;;16.99;100.00;96432.84;5114251;28;20506;-58
2023/09/16 06:14:32;;;;;;;13.82;12.38;;;;;;;17.09;100.00;96433.38;5113474;28;20193;-56
2023/09/16 06:17:00;;;;;;;15.48;13.90;;;;;;;17.20;100.00;96432.88;5113872;28;20231;-57
2023/09/16 06:19:27;;;;;;;15.55;13.95;;;;;;;17.36;100.00;96427.28;5114578;28;20212;-58
2023/09/16 06:21:54;;;;;;;17.30;15.60;;;;;;;17.52;100.00;96425.38;5113523;28;20266;-58
2023/09/16 06:24:20;;;;;;;18.23;16.45;;;;;;;17.64;100.00;96430.03;5113146;28;20197;-58
2023/09/16 06:26:47;;;;;;;17.67;15.98;;;;;;;17.79;100.00;96421.94;5113521;28;20208;-57
2023/09/16 06:29:13;;;;;;;29.80;17.67;;;;;;;18.02;100.00;96425.22;5112787;28;20243;-59
2023/09/16 06:31:40;;;;;;;17.52;15.68;;;;;;;18.76;100.00;96426.34;5113782;28;20556;-58
2023/09/16 06:34:08;;;;;;;17.90;16.17;;;;;;;19.70;100.00;96427.22;5112909;28;20632;-59
2023/09/16 06:36:38;;;;;;;17.80;16.10;;;;;;;20.42;100.00;96417.53;5113067;28;20628;-59
2023/09/16 06:39:07;;;;;;;18.27;16.42;;;;;;;20.98;100.00;96428.53;5112669;28;20185;-57
2023/09/16 06:41:33;;;;;;;16.63;15.02;;;;;;;21.51;100.00;96421.03;5113104;28;20211;-57
2023/09/16 06:44:00;;;;;;;14.82;13.38;;;;;;;22.11;100.00;96425.78;5112297;28;20206;-59
2023/09/16 06:46:26;;;;;;;13.95;12.57;;;;;;;22.83;100.00;96428.84;5113201;28;20216;-59
2023/09/16 06:48:53;;;;;;;13.98;12.68;;;;;;;22.96;100.00;96426.00;5113460;28;20208;-58
2023/09/16 06:51:21;;;;;;;13.93;12.32;;;;;;;23.35;100.00;96438.19;5113172;28;20208;-58
2023/09/16 06:53:47;;;;;;;12.77;11.68;;;;;;;23.62;99.95;96434.94;5112684;28;20499;-57
2023/09/16 06:56:13;;;;;;;12.85;11.60;;;;;;;24.02;97.07;96445.94;5112291;28;20648;-56
2023/09/16 06:58:40;;;;;;;12.73;11.43;;;;;;;24.19;97.22;96446.13;5111782;28;20240;-56
2023/09/16 07:01:10;;;;;;;12.30;11.00;;;;;;;24.12;93.30;96438.09;5112106;28;20193;-59
2023/09/16 07:03:36;;;;;;;15.07;11.60;;;;;;;23.87;97.14;96447.44;5112469;28;20232;-56
2023/09/16 07:06:03;;;;;;;13.05;11.38;;;;;;;23.40;100.00;96441.84;5112220;28;20209;-59
2023/09/16 07:08:31;;;;;;;12.40;11.30;;;;;;;22.54;100.00;96441.97;5112734;28;20205;-61
2023/09/16 07:10:57;;;;;;;12.40;11.30;;;;;;;22.29;100.00;96443.88;5111814;28;20212;-57
2023/09/16 07:13:24;;;;;;;11.82;10.93;;;;;;;21.97;100.00;96443.09;5112130;28;20533;-58
2023/09/16 07:15:53;;;;;;;12.35;11.32;;;;;;;21.81;100.00;96435.53;5111878;28;20544;-58
2023/09/16 07:18:19;;;;;;;12.60;11.52;;;;;;;21.62;100.00;96436.50;5112980;28;20221;-57
2023/09/16 07:20:46;;;;;;;11.60;10.60;;;;;;;21.47;100.00;96430.59;5112059;28;20209;-58
2023/09/16 07:23:12;;;;;;;12.15;11.18;;;;;;;21.25;100.00;96439.00;5112483;28;20212;-57
2023/09/16 07:25:40;;;;;;;11.82;10.68;;;;;;;21.10;100.00;96437.59;5112821;28;20201;-56
2023/09/16 07:28:07;;;;;;;11.55;10.60;;;;;;;21.10;100.00;96434.91;5113234;28;20241;-57
2023/09/16 07:30:34;;;;;;;12.23;11.23;;;;;;;21.01;100.00;96445.06;5113696;28;20205;-57
2023/09/16 07:33:01;;;;;;;11.55;10.65;;;;;;;21.01;100.00;96450.44;5113188;28;20201;-57
2023/09/16 07:35:28;;;;;;;11.90;10.80;;;;;;;20.93;100.00;96450.69;5113819;28;20205;-58
2023/09/16 07:37:54;;;;;;;11.75;10.75;;;;;;;20.80;100.00;96448.84;5112369;28;20234;-57
2023/09/16 07:40:20;;;;;;;11.10;10.10;;;;;;;20.87;100.00;96453.41;5112338;28;20538;-61
2023/09/16 07:42:48;;;;;;;11.27;10.35;;;;;;;20.72;100.00;96451.78;5112707;28;20201;-59
2023/09/16 07:45:15;;;;;;;10.73;9.85;;;;;;;20.65;100.00;96460.91;5112755;28;20209;-58
2023/09/16 07:47:41;;;;;;;11.65;10.63;;;;;;;20.51;100.00;96460.06;5112922;28;20209;-58
2023/09/16 07:50:08;;;;;;;10.82;9.80;;;;;;;20.48;100.00;96460.50;5113411;28;20205;-55
2023/09/16 07:52:35;;;;;;;10.45;9.55;;;;;;;20.52;100.00;96460.91;5111385;28;20291;-55
2023/09/16 07:55:01;;;;;;;10.30;9.30;;;;;;;20.48;100.00;96470.41;5110510;28;20205;-59
2023/09/16 07:57:29;;;;;;;11.90;9.60;;;;;;;20.38;100.00;96476.22;5111662;28;20233;-58
2023/09/16 07:59:56;;;;;;;10.10;9.30;;;;;;;20.45;100.00;96477.03;5111036;28;20202;-57
2023/09/16 08:02:23;;;;;;;9.18;8.35;;;;;;;20.57;100.00;96470.00;5111430;28;20197;-58
2023/09/16 08:04:50;;;;;;;9.70;8.73;;;;;;;20.67;100.00;96483.00;5111320;28;20208;-58
2023/09/16 08:07:16;;;;;;;10.48;9.13;;;;;;;20.67;100.00;96481.13;5111525;28;20216;-57
2023/09/16 08:09:43;;;;;;;9.55;8.82;;;;;;;20.69;100.00;96479.06;5110644;28;20215;-58
2023/09/16 08:12:10;;;;;;;9.55;8.48;;;;;;;20.78;100.00;96480.50;5110983;28;20205;-58
2023/09/16 08:14:36;;;;;;;8.90;8.15;;;;;;;20.71;100.00;96478.84;5110486;28;20213;-57
2023/09/16 08:17:04;;;;;;;8.20;7.47;;;;;;;20.94;100.00;96481.09;5111286;28;20201;-58
2023/09/16 08:19:31;;;;;;;8.40;7.50;;;;;;;20.99;100.00;96473.19;5110217;28;20232;-58
2023/09/16 08:21:57;;;;;;;9.02;8.13;;;;;;;21.03;100.00;96469.06;5111050;28;20530;-57
2023/09/16 08:24:24;;;;;;;8.70;7.70;;;;;;;21.12;100.00;96467.78;5110330;28;20637;-56
2023/09/16 08:26:50;;;;;;;8.88;8.13;;;;;;;21.32;100.00;96472.06;5110744;28;20209;-57
2023/09/16 08:29:17;;;;;;;9.18;8.27;;;;;;;21.46;100.00;96470.13;5110331;28;20240;-58
2023/09/16 08:31:43;;;;;;;9.02;8.32;;;;;;;21.58;100.00;96471.09;5111236;28;20250;-58
2023/09/16 08:34:11;;;;;;;9.55;8.75;;;;;;;21.59;100.00;96480.00;5111057;28;20212;-57
2023/09/16 08:36:37;;;;;;;8.40;7.25;;;;;;;21.79;100.00;96473.44;5111466;28;20197;-57
2023/09/16 08:39:04;;;;;;;8.38;7.68;;;;;;;21.90;100.00;96479.16;5110643;28;20232;-58
2023/09/16 08:41:38;;;;;;;7.93;7.22;;;;;;;21.88;100.00;96479.41;5111011;28;20208;-56
2023/09/16 08:44:06;;;;;;;8.80;8.00;;;;;;;21.83;100.00;96477.34;5111458;28;20212;-58
2023/09/16 08:46:34;;;;;;;7.72;7.13;;;;;;;21.84;100.00;96473.63;5111101;28;20205;-57
2023/09/16 08:49:03;;;;;;;8.20;7.50;;;;;;;21.82;100.00;96467.63;5110307;28;20618;-57
2023/09/16 08:51:33;;;;;;;7.60;7.00;;;;;;;21.87;100.00;96468.84;5111290;28;20197;-57
2023/09/16 08:53:59;;;;;;;8.00;7.40;;;;;;;21.72;100.00;96469.97;5110213;28;20204;-58
2023/09/16 08:56:26;;;;;;;7.03;6.40;;;;;;;21.78;100.00;96479.06;5110756;28;20551;-57
2023/09/16 08:58:53;;;;;;;6.25;5.65;;;;;;;21.82;100.00;96469.50;5110512;28;20240;-58
2023/09/16 09:01:20;;;;;;;5.90;5.25;;;;;;;21.93;100.00;96470.72;5110603;28;20258;-58
2023/09/16 09:03:47;;;;;;;5.80;5.18;;;;;;;21.91;97.19;96467.41;5111399;28;20238;-57
2023/09/16 09:06:14;;;;;;;5.47;5.03;;;;;;;22.02;98.83;96469.38;5113832;28;20536;-58
2023/09/16 09:08:42;;;;;;;5.38;4.97;;;;;;;22.07;100.00;96466.88;5115087;28;20258;-56
2023/09/16 09:11:12;;;;;;;5.70;5.20;;;;;;;22.12;100.00;96458.94;5114720;28;20201;-58
2023/09/16 09:13:39;;;;;;;6.35;5.43;;;;;;;22.17;97.97;96457.25;5114734;28;20308;-58
2023/09/16 09:16:06;;;;;;;6.05;5.55;;;;;;;22.32;97.20;96460.44;5114592;28;20209;-58
2023/09/16 09:18:34;;;;;;;4.65;4.35;;;;;;;22.42;98.27;96464.50;5115249;28;20235;-58
2023/09/16 09:21:00;;;;;;;6.45;5.85;;;;;;;22.34;96.83;96460.22;5114730;28;20201;-57
2023/09/16 09:23:27;;;;;;;6.53;6.00;;;;;;;22.41;99.01;96454.75;5115045;28;20208;-59
2023/09/16 09:25:56;;;;;;;6.03;5.45;;;;;;;22.54;99.77;96460.03;5114578;28;20235;-57
2023/09/16 09:28:23;;;;;;;7.85;6.50;;;;;;;22.55;99.17;96465.19;5114949;28;20681;-57
2023/09/16 09:30:50;;;;;;;7.30;6.72;;;;;;;22.55;97.81;96459.81;5115577;28;20205;-58
2023/09/16 09:33:21;;;;;;;8.10;7.30;;;;;;;22.58;97.41;96453.97;5119405;28;20260;-56
2023/09/16 09:35:47;;;;;;;6.93;6.35;;;;;;;22.99;96.32;96449.84;5118396;28;20209;-57
2023/09/16 09:38:15;;;;;;;7.78;7.07;;;;;;;23.37;94.12;96452.28;5114660;28;20229;-57
2023/09/16 09:40:42;;;;;;;7.18;6.57;;;;;;;23.69;95.69;96449.16;5114044;28;20224;-57
2023/09/16 09:43:10;;;;;;;6.30;5.72;;;;;;;24.02;92.19;96455.94;5114504;28;20204;-58
2023/09/16 09:45:37;;;;;;;6.72;6.22;;;;;;;24.22;89.65;96445.66;5114217;28;20193;-59
2023/09/16 09:48:04;;;;;;;7.35;6.75;;;;;;;24.61;91.47;96439.56;5114365;28;20201;-58
2023/09/16 09:50:31;;;;;;;10.30;6.55;;;;;;;25.04;87.46;96439.19;5114731;28;20193;-58
2023/09/16 09:53:01;;;;;;;7.03;6.50;;;;;;;25.12;86.97;96443.38;5113941;28;20197;-58
2023/09/16 09:55:29;;;;;;;6.90;6.30;;;;;;;25.27;84.77;96449.13;5114694;28;20212;-57
2023/09/16 09:57:56;;;;;;;6.50;6.00;;;;;;;25.21;84.71;96439.28;5113858;28;20201;-57
2023/09/16 10:00:26;;;;;;;6.38;5.88;;;;;;;25.34;84.15;96440.88;5113728;28;20201;-56
2023/09/16 10:02:52;;;;;;;6.15;5.60;;;;;;;25.40;86.68;96438.00;5114371;28;20213;-57
2023/09/16 10:05:20;;;;;;;5.93;5.53;;;;;;;25.80;83.96;96424.44;5113374;28;20205;-58
2023/09/16 10:07:47;;;;;;;6.43;5.82;;;;;;;25.88;85.71;96434.06;5114027;28;20288;-59
2023/09/16 10:10:15;;;;;;;5.80;5.40;;;;;;;25.95;82.86;96429.31;5113737;28;20193;-58
2023/09/16 10:12:43;;;;;;;5.80;5.40;;;;;;;26.15;80.82;96427.75;5113634;28;20813;-58
2023/09/16 10:15:10;;;;;;;5.80;5.30;;;;;;;26.20;81.55;96414.34;5113655;28;20220;-58
2023/09/16 10:17:38;;;;;;;6.10;5.60;;;;;;;26.21;77.33;96417.88;5112534;28;20212;-57
2023/09/16 10:20:09;;;;;;;5.95;5.45;;;;;;;26.07;80.16;96416.53;5113661;28;20225;-57
2023/09/16 10:22:36;;;;;;;5.32;4.95;;;;;;;26.06;80.18;96421.13;5114200;28;20205;-56
2023/09/16 10:25:03;;;;;;;5.22;4.80;;;;;;;26.25;79.47;96412.78;5113361;28;20213;-56
2023/09/16 10:27:32;;;;;;;4.70;4.40;;;;;;;26.39;78.20;96424.94;5112744;28;20208;-57
2023/09/16 10:30:00;;;;;;;5.60;5.10;;;;;;;26.80;80.32;96407.34;5112983;28;20229;-57
2023/09/16 10:32:27;;;;;;;5.20;4.80;;;;;;;26.56;77.35;96418.44;5113055;28;20202;-57
2023/09/16 10:34:56;;;;;;;5.18;4.75;;;;;;;27.01;77.44;96412.81;5113482;28;20232;-57
2023/09/16 10:37:24;;;;;;;4.90;4.50;;;;;;;27.17;76.58;96417.38;5113216;28;20209;-57
2023/09/16 10:39:51;;;;;;;5.30;4.80;;;;;;;27.30;75.31;96418.88;5113000;28;20236;-57
2023/09/16 10:42:19;;;;;;;6.07;5.57;;;;;;;27.25;74.84;96423.41;5115045;28;20197;-57
2023/09/16 10:44:47;;;;;;;6.20;5.70;;;;;;;27.15;75.08;96424.13;5112976;28;20243;-57
2023/09/16 10:47:14;;;;;;;6.25;5.75;;;;;;;26.97;73.63;96424.44;5113137;28;20197;-56
2023/09/16 10:49:40;;;;;;;6.88;6.28;;;;;;;26.91;79.96;96415.41;5112832;28;20194;-58
2023/09/16 10:52:10;;;;;;;7.10;6.60;;;;;;;26.86;75.70;96414.50;5112307;28;21000;-57
2023/09/16 10:54:41;;;;;;;6.07;5.63;;;;;;;26.90;74.77;96416.47;5112772;28;20216;-57
2023/09/16 10:57:14;;;;;;;6.47;6.05;;;;;;;27.02;78.53;96413.66;5112860;28;20217;-57
2023/09/16 10:59:41;;;;;;;5.97;5.57;;;;;;;27.07;77.15;96410.97;5113009;28;20206;-57
2023/09/16 11:02:12;;;;;;;6.07;5.68;;;;;;;27.12;77.94;96413.78;5111985;28;20205;-58
2023/09/16 11:04:40;;;;;;;6.47;5.90;;;;;;;26.86;78.13;96409.09;5112592;28;21297;-58
2023/09/16 11:07:08;;;;;;;6.53;6.13;;;;;;;27.06;77.85;96404.75;5112537;28;20209;-57
2023/09/16 11:09:35;;;;;;;6.30;5.80;;;;;;;27.29;77.61;96403.66;5112506;28;20208;-57
2023/09/16 11:12:01;;;;;;;5.85;5.45;;;;;;;27.39;79.47;96411.94;5111518;28;20262;-57
2023/09/16 11:14:28;;;;;;;6.20;5.70;;;;;;;27.30;75.15;96408.03;5112245;28;20201;-58
2023/09/16 11:16:54;;;;;;;6.55;6.05;;;;;;;27.29;76.17;96403.66;5112224;28;20227;-58